createdAt,value
2022-08-21T00:02:03.078Z,98247.47
2022-08-21T00:04:30.348Z,98248.56
2022-08-21T00:06:58.471Z,98248.59
2022-08-21T00:09:25.095Z,98248.66
2022-08-21T00:11:51.801Z,98250.97
2022-08-21T00:14:18.391Z,98246.19
2022-08-21T00:16:45.344Z,98237.03
2022-08-21T00:19:12.270Z,98244.19
2022-08-21T00:21:38.984Z,98239.56
2022-08-21T00:24:06.737Z,98240.25
2022-08-21T00:26:34.553Z,98253.06
2022-08-21T00:29:04.539Z,98243.16
2022-08-21T00:31:31.149Z,98246.09
2022-08-21T00:34:00.661Z,98241.34
2022-08-21T00:36:28.117Z,98248.38
2022-08-21T00:38:54.706Z,98242.38
2022-08-21T00:41:37.245Z,98243.81
2022-08-21T00:44:08.700Z,98249.16
2022-08-21T00:46:35.877Z,98245.28
2022-08-21T00:49:02.541Z,98243.69
2022-08-21T00:51:38.354Z,98246.44
2022-08-21T00:54:06.734Z,98243.84
2022-08-21T00:56:39.864Z,98238.97
2022-08-21T00:59:08.946Z,98240.56
2022-08-21T01:01:36.255Z,98228.00
2022-08-21T01:04:03.145Z,98235.72
2022-08-21T01:06:29.818Z,98231.00
2022-08-21T01:08:56.420Z,98232.31
2022-08-21T01:11:23.039Z,98229.47
2022-08-21T01:13:50.230Z,98235.25
2022-08-21T01:16:20.039Z,98230.81
2022-08-21T01:18:48.171Z,98233.75
2022-08-21T01:21:19.427Z,98232.94
2022-08-21T01:23:49.965Z,98232.94
2022-08-21T01:26:19.393Z,98227.75
2022-08-21T01:29:12.661Z,98232.34
2022-08-21T01:31:39.561Z,98232.69
2022-08-21T01:34:07.201Z,98228.50
2022-08-21T01:36:34.905Z,98217.56
2022-08-21T01:39:03.204Z,98221.97
2022-08-21T01:41:29.823Z,98226.97
2022-08-21T01:43:56.799Z,98226.81
2022-08-21T01:46:23.441Z,98221.28
2022-08-21T01:48:50.450Z,98220.84
2022-08-21T01:51:17.019Z,98217.47
2022-08-21T01:53:43.641Z,98217.75
2022-08-21T01:56:12.938Z,98214.50
2022-08-21T01:58:41.173Z,98214.97
2022-08-21T02:01:08.497Z,98215.91
2022-08-21T02:03:36.273Z,98213.91
2022-08-21T02:06:04.927Z,98213.78
2022-08-21T02:08:31.613Z,98212.69
2022-08-21T02:10:58.196Z,98208.19
2022-08-21T02:13:24.793Z,98196.34
2022-08-21T02:15:51.400Z,98195.28
2022-08-21T02:18:18.035Z,98199.91
2022-08-21T02:20:47.906Z,98192.06
2022-08-21T02:23:15.747Z,98188.66
2022-08-21T02:25:42.979Z,98193.56
2022-08-21T02:28:12.607Z,98190.69
2022-08-21T02:30:43.341Z,98194.13
2022-08-21T02:33:11.969Z,98186.19
2022-08-21T02:35:42.995Z,98187.28
2022-08-21T02:38:13.124Z,98184.06
2022-08-21T02:40:43.744Z,98188.84
2022-08-21T02:43:16.087Z,98192.25
2022-08-21T02:45:44.175Z,98191.75
2022-08-21T02:48:13.549Z,98193.13
2022-08-21T02:50:46.231Z,98193.59
2022-08-21T02:53:17.528Z,98185.44
2022-08-21T02:55:49.081Z,98187.13
2022-08-21T02:58:19.293Z,98186.38
2022-08-21T03:00:46.372Z,98188.66
2022-08-21T03:03:15.698Z,98192.66
2022-08-21T03:05:43.940Z,98195.31
2022-08-21T03:08:13.467Z,98182.53
2022-08-21T03:10:42.963Z,98186.22
2022-08-21T03:13:09.891Z,98185.75
2022-08-21T03:15:37.927Z,98181.16
2022-08-21T03:18:06.343Z,98183.00
2022-08-21T03:20:33.654Z,98177.31
2022-08-21T03:23:01.318Z,98178.38
2022-08-21T03:25:39.572Z,98183.91
2022-08-21T03:28:13.239Z,98195.00
2022-08-21T03:30:45.563Z,98197.31
2022-08-21T03:33:15.083Z,98188.84
2022-08-21T03:35:44.596Z,98191.31
2022-08-21T03:38:13.770Z,98190.84
2022-08-21T03:40:40.893Z,98194.06
2022-08-21T03:43:10.073Z,98193.34
2022-08-21T03:45:37.201Z,98188.84
2022-08-21T03:48:05.384Z,98198.97
2022-08-21T03:50:35.609Z,98190.69
2022-08-21T03:53:09.262Z,98197.59
2022-08-21T03:55:49.321Z,98192.38
2022-08-21T03:58:17.998Z,98196.22
2022-08-21T04:00:51.474Z,98195.59
2022-08-21T04:03:18.834Z,98188.34
2022-08-21T04:05:46.878Z,98194.13
2022-08-21T04:08:15.829Z,98205.44
2022-08-21T04:10:44.769Z,98206.53
2022-08-21T04:13:11.400Z,98207.88
2022-08-21T04:15:38.039Z,98211.47
2022-08-21T04:18:06.541Z,98211.28
2022-08-21T04:20:34.200Z,98207.97
2022-08-21T04:23:01.006Z,98215.22
2022-08-21T04:25:27.935Z,98212.94
2022-08-21T04:27:54.528Z,98219.47
2022-08-21T04:30:28.095Z,98218.09
2022-08-21T04:32:57.323Z,98221.91
2022-08-21T04:35:25.772Z,98221.25
2022-08-21T04:37:52.546Z,98225.25
2022-08-21T04:40:20.807Z,98221.91
2022-08-21T04:42:55.876Z,98226.94
2022-08-21T04:45:35.123Z,98224.47
2022-08-21T04:48:03.917Z,98226.34
2022-08-21T04:50:37.505Z,98232.00
2022-08-21T04:53:08.411Z,98236.50
2022-08-21T04:55:35.511Z,98234.72
2022-08-21T04:58:02.414Z,98236.84
2022-08-21T05:00:29.067Z,98238.00
2022-08-21T05:03:00.435Z,98232.81
2022-08-21T05:05:30.234Z,98233.22
2022-08-21T05:08:00.166Z,98240.41
2022-08-21T05:10:28.685Z,98236.84
2022-08-21T05:12:56.252Z,98239.16
2022-08-21T05:15:22.856Z,98231.38
2022-08-21T05:17:53.636Z,98245.13
2022-08-21T05:20:27.409Z,98237.78
2022-08-21T05:22:54.067Z,98248.53
2022-08-21T05:25:22.239Z,98242.31
2022-08-21T05:27:52.161Z,98239.69
2022-08-21T05:30:20.641Z,98238.78
2022-08-21T05:32:48.633Z,98243.81
2022-08-21T05:35:15.326Z,98247.91
2022-08-21T05:37:41.958Z,98257.94
2022-08-21T05:40:21.881Z,98253.81
2022-08-21T05:42:55.349Z,98259.47
2022-08-21T05:45:42.656Z,98254.09
2022-08-21T05:48:28.606Z,98256.13
2022-08-21T05:50:55.375Z,98255.56
2022-08-21T05:53:23.651Z,98258.22
2022-08-21T05:55:51.458Z,98254.22
2022-08-21T05:58:20.594Z,98245.78
2022-08-21T06:00:49.081Z,98248.69
2022-08-21T06:03:21.763Z,98251.91
2022-08-21T06:05:48.877Z,98248.06
2022-08-21T06:08:17.228Z,98243.28
2022-08-21T06:10:45.136Z,98242.38
2022-08-21T06:13:12.937Z,98241.06
2022-08-21T06:15:39.662Z,98239.50
2022-08-21T06:18:06.509Z,98235.84
2022-08-21T06:20:33.469Z,98239.78
2022-08-21T06:23:00.383Z,98241.44
2022-08-21T06:25:27.161Z,98246.41
2022-08-21T06:27:53.799Z,98238.16
2022-08-21T06:30:20.750Z,98247.41
2022-08-21T06:32:47.364Z,98245.31
2022-08-21T06:35:13.997Z,98243.13
2022-08-21T06:37:40.613Z,98239.19
2022-08-21T06:40:12.467Z,98238.50
2022-08-21T06:42:41.384Z,98241.06
2022-08-21T06:45:10.160Z,98243.00
2022-08-21T06:47:36.956Z,98246.34
2022-08-21T06:50:04.717Z,98246.44
2022-08-21T06:52:31.455Z,98245.09
2022-08-21T06:54:58.021Z,98242.94
2022-08-21T06:57:26.433Z,98238.06
2022-08-21T06:59:53.025Z,98241.75
2022-08-21T07:02:19.619Z,98246.00
2022-08-21T07:04:46.283Z,98246.28
2022-08-21T07:07:12.866Z,98244.72
2022-08-21T07:09:40.552Z,98245.75
2022-08-21T07:12:07.540Z,98236.22
2022-08-21T07:14:34.151Z,98236.41
2022-08-21T07:17:00.764Z,98241.44
2022-08-21T07:19:27.503Z,98243.78
2022-08-21T07:21:59.203Z,98240.06
2022-08-21T07:24:25.952Z,98241.44
2022-08-21T07:26:52.684Z,98244.09
2022-08-21T07:29:19.695Z,98232.13
2022-08-21T07:31:46.597Z,98241.41
2022-08-21T07:34:13.859Z,98229.22
2022-08-21T07:36:40.591Z,98240.31
2022-08-21T07:39:07.207Z,98234.31
2022-08-21T07:41:35.429Z,98230.50
2022-08-21T07:44:02.498Z,98233.25
2022-08-21T07:46:29.391Z,98227.53
2022-08-21T07:48:56.025Z,98222.47
2022-08-21T07:51:26.901Z,98228.03
2022-08-21T07:53:55.983Z,98229.00
2022-08-21T07:56:22.957Z,98229.66
2022-08-21T07:58:49.620Z,98224.84
2022-08-21T08:01:16.320Z,98221.03
2022-08-21T08:03:43.946Z,98225.34
2022-08-21T08:06:13.387Z,98225.91
2022-08-21T08:08:41.836Z,98213.69
2022-08-21T08:11:13.444Z,98211.66
2022-08-21T08:13:49.047Z,98211.41
2022-08-21T08:16:16.697Z,98207.25
2022-08-21T08:18:43.839Z,98205.56
2022-08-21T08:21:11.380Z,98215.53
2022-08-21T08:23:38.483Z,98210.31
2022-08-21T08:26:05.321Z,98203.66
2022-08-21T08:28:32.968Z,98207.38
2022-08-21T08:31:00.761Z,98211.34
2022-08-21T08:33:28.523Z,98209.16
2022-08-21T08:35:55.998Z,98209.69
2022-08-21T08:38:24.782Z,98214.41
2022-08-21T08:41:03.664Z,98215.03
2022-08-21T08:43:33.167Z,98217.44
2022-08-21T08:46:05.359Z,98218.09
2022-08-21T08:48:42.053Z,98224.84
2022-08-21T08:51:17.676Z,98214.44
2022-08-21T08:53:51.678Z,98211.91
2022-08-21T08:56:27.236Z,98217.31
2022-08-21T08:58:55.159Z,98213.75
2022-08-21T09:01:21.928Z,98209.66
2022-08-21T09:03:51.122Z,98217.28
2022-08-21T09:06:43.755Z,98211.38
2022-08-21T09:09:16.323Z,98204.72
2022-08-21T09:12:15.883Z,98200.22
2022-08-21T09:14:55.959Z,98192.72
2022-08-21T09:17:41.141Z,98194.31
2022-08-21T09:20:24.557Z,98192.34
2022-08-21T09:23:22.934Z,98191.34
2022-08-21T09:26:25.391Z,98180.72
2022-08-21T09:28:59.040Z,98183.16
2022-08-21T09:31:30.844Z,98176.38
2022-08-21T09:34:07.250Z,98183.19
2022-08-21T09:36:47.550Z,98187.13
2022-08-21T09:39:27.608Z,98189.31
2022-08-21T09:42:02.226Z,98191.56
2022-08-21T09:44:32.987Z,98184.34
2022-08-21T09:47:00.298Z,98186.66
2022-08-21T09:49:37.262Z,98184.56
2022-08-21T09:52:07.660Z,98181.84
2022-08-21T09:54:39.122Z,98181.91
2022-08-21T09:57:27.348Z,98180.28
2022-08-21T09:59:54.482Z,98173.56
2022-08-21T10:02:30.485Z,98168.50
2022-08-21T10:05:16.003Z,98168.56
2022-08-21T10:07:42.671Z,98168.25
2022-08-21T10:10:15.110Z,98159.06
2022-08-21T10:13:21.744Z,98155.00
2022-08-21T10:16:11.746Z,98155.66
2022-08-21T10:18:46.190Z,98147.41
2022-08-21T10:21:21.274Z,98149.66
2022-08-21T10:24:06.361Z,98148.09
2022-08-21T10:26:38.756Z,98143.19
2022-08-21T10:29:29.385Z,98145.94
2022-08-21T10:32:25.628Z,98150.00
2022-08-21T10:35:03.067Z,98146.31
2022-08-21T10:37:51.115Z,98136.91
2022-08-21T10:40:44.146Z,98143.19
2022-08-21T10:43:33.478Z,98135.84
2022-08-21T10:46:11.820Z,98132.50
2022-08-21T10:48:59.742Z,98128.09
2022-08-21T10:51:39.855Z,98140.19
2022-08-21T10:54:23.383Z,98131.06
2022-08-21T10:56:55.321Z,98129.00
2022-08-21T10:59:29.539Z,98128.69
2022-08-21T11:02:04.922Z,98133.94
2022-08-21T11:04:49.183Z,98124.44
2022-08-21T11:07:32.269Z,98120.38
2022-08-21T11:10:09.191Z,98123.06
2022-08-21T11:12:57.783Z,98123.50
2022-08-21T11:15:29.107Z,98117.72
2022-08-21T11:18:09.352Z,98115.06
2022-08-21T11:20:44.132Z,98109.34
2022-08-21T11:23:38.044Z,98105.38
2022-08-21T11:26:14.408Z,98117.19
2022-08-21T11:28:54.401Z,98117.94
2022-08-21T11:31:27.054Z,98117.09
2022-08-21T11:34:05.325Z,98115.69
2022-08-21T11:36:59.673Z,98111.56
2022-08-21T11:39:40.855Z,98121.91
2022-08-21T11:42:16.547Z,98120.16
2022-08-21T11:45:13.367Z,98106.91
2022-08-21T11:47:53.897Z,98116.59
2022-08-21T11:50:41.813Z,98111.06
2022-08-21T11:53:14.395Z,98112.50
2022-08-21T11:55:50.023Z,98108.25
2022-08-21T11:58:33.519Z,98113.47
2022-08-21T12:01:08.061Z,98107.50
2022-08-21T12:03:39.235Z,98109.78
2022-08-21T12:06:12.782Z,98111.63
2022-08-21T12:08:41.993Z,98111.06
2022-08-21T12:11:15.493Z,98100.56
2022-08-21T12:14:06.596Z,98110.25
2022-08-21T12:16:34.643Z,98107.34
2022-08-21T12:19:24.541Z,98108.22
2022-08-21T12:21:54.104Z,98101.13
2022-08-21T12:24:34.649Z,98110.22
2022-08-21T12:27:46.946Z,98102.56
2022-08-21T12:30:22.376Z,98099.53
2022-08-21T12:33:04.161Z,98101.56
2022-08-21T12:35:39.559Z,98102.41
2022-08-21T12:38:17.367Z,98093.44
2022-08-21T12:41:01.699Z,98102.22
2022-08-21T12:43:38.391Z,98089.44
2022-08-21T12:46:06.043Z,98093.09
2022-08-21T12:48:32.692Z,98089.00
2022-08-21T12:51:13.712Z,98083.44
2022-08-21T12:53:46.820Z,98082.91
2022-08-21T12:56:18.616Z,98079.47
2022-08-21T12:58:48.047Z,98072.91
2022-08-21T13:01:25.495Z,98077.28
2022-08-21T13:03:58.845Z,98078.81
2022-08-21T13:06:38.824Z,98076.94
2022-08-21T13:09:08.986Z,98073.50
2022-08-21T13:11:36.227Z,98068.72
2022-08-21T13:14:05.277Z,98065.16
2022-08-21T13:16:32.890Z,98071.22
2022-08-21T13:19:07.530Z,98063.50
2022-08-21T13:21:41.869Z,98066.31
2022-08-21T13:24:42.299Z,98062.00
2022-08-21T13:27:28.709Z,98068.38
2022-08-21T13:30:09.046Z,98058.56
2022-08-21T13:32:39.878Z,98057.66
2022-08-21T13:35:16.980Z,98057.94
2022-08-21T13:37:45.687Z,98058.19
2022-08-21T13:40:17.016Z,98056.47
2022-08-21T13:42:46.187Z,98061.88
2022-08-21T13:45:33.845Z,98055.09
2022-08-21T13:48:05.997Z,98047.66
2022-08-21T13:50:36.375Z,98048.38
2022-08-21T13:53:06.925Z,98046.91
2022-08-21T13:55:44.720Z,98051.53
2022-08-21T13:58:12.775Z,98047.16
2022-08-21T14:00:49.667Z,98052.16
2022-08-21T14:03:32.143Z,98045.53
2022-08-21T14:06:00.244Z,98046.84
2022-08-21T14:08:37.022Z,98043.94
2022-08-21T14:11:10.693Z,98052.59
2022-08-21T14:13:42.613Z,98047.38
2022-08-21T14:16:14.626Z,98040.69
2022-08-21T14:18:50.592Z,98037.56
2022-08-21T14:21:30.796Z,98033.69
2022-08-21T14:24:29.319Z,98033.41
2022-08-21T14:27:05.518Z,98029.91
2022-08-21T14:29:39.157Z,98026.75
2022-08-21T14:32:25.419Z,98026.00
2022-08-21T14:34:54.580Z,98025.66
2022-08-21T14:37:21.823Z,98027.19
2022-08-21T14:39:48.516Z,98026.28
2022-08-21T14:42:15.334Z,98030.44
2022-08-21T14:44:42.218Z,98026.38
2022-08-21T14:47:10.299Z,98024.19
2022-08-21T14:49:36.980Z,98026.63
2022-08-21T14:52:03.887Z,98028.78
2022-08-21T14:54:32.501Z,98023.59
2022-08-21T14:57:07.501Z,98025.13
2022-08-21T14:59:34.306Z,98029.91
2022-08-21T15:02:02.360Z,98028.47
2022-08-21T15:04:29.012Z,98029.88
2022-08-21T15:06:55.691Z,98023.28
2022-08-21T15:09:22.423Z,98024.88
2022-08-21T15:11:49.168Z,98027.59
2022-08-21T15:14:22.531Z,98027.94
2022-08-21T15:16:49.789Z,98030.88
2022-08-21T15:19:16.606Z,98027.72
2022-08-21T15:21:43.445Z,98021.78
2022-08-21T15:24:10.117Z,98015.78
2022-08-21T15:26:37.445Z,98015.34
2022-08-21T15:29:06.984Z,98018.41
2022-08-21T15:31:33.894Z,98006.41
2022-08-21T15:34:00.665Z,98015.25
2022-08-21T15:36:27.517Z,98010.97
2022-08-21T15:38:54.097Z,98012.22
2022-08-21T15:41:20.831Z,98017.25
2022-08-21T15:43:51.231Z,98015.03
2022-08-21T15:46:20.279Z,98014.72
2022-08-21T15:48:47.492Z,98017.13
2022-08-21T15:51:16.218Z,98006.88
2022-08-21T15:53:43.122Z,98019.72
2022-08-21T15:56:23.674Z,98019.03
2022-08-21T15:58:51.875Z,98011.75
2022-08-21T16:01:18.613Z,98009.34
2022-08-21T16:03:50.166Z,98003.56
2022-08-21T16:06:17.367Z,98002.13
2022-08-21T16:08:44.011Z,98007.31
2022-08-21T16:11:14.222Z,98012.34
2022-08-21T16:13:44.894Z,98003.19
2022-08-21T16:16:13.388Z,98001.00
2022-08-21T16:18:40.688Z,97999.38
2022-08-21T16:21:08.071Z,98003.97
2022-08-21T16:23:36.083Z,97999.09
2022-08-21T16:26:04.090Z,97995.53
2022-08-21T16:28:31.826Z,97994.09
2022-08-21T16:30:58.624Z,97991.06
2022-08-21T16:33:42.116Z,97985.16
2022-08-21T16:36:11.792Z,97992.13
2022-08-21T16:38:40.675Z,97990.69
2022-08-21T16:41:09.631Z,97975.50
2022-08-21T16:43:38.823Z,97976.34
2022-08-21T16:46:05.594Z,97972.41
2022-08-21T16:48:32.317Z,97972.41
2022-08-21T16:50:59.251Z,97972.16
2022-08-21T16:53:26.013Z,97970.94
2022-08-21T16:55:53.659Z,97965.22
2022-08-21T16:58:27.822Z,97970.50
2022-08-21T17:00:55.487Z,97969.06
2022-08-21T17:03:32.486Z,97964.84
2022-08-21T17:05:59.113Z,97974.06
2022-08-21T17:08:25.911Z,97961.88
2022-08-21T17:10:52.952Z,97967.41
2022-08-21T17:13:19.977Z,97960.63
2022-08-21T17:15:47.079Z,97966.75
2022-08-21T17:18:18.207Z,97957.75
2022-08-21T17:20:45.073Z,97958.56
2022-08-21T17:23:11.905Z,97959.44
2022-08-21T17:25:41.635Z,97968.63
2022-08-21T17:28:09.756Z,97961.50
2022-08-21T17:30:38.039Z,97966.88
2022-08-21T17:33:04.645Z,97962.44
2022-08-21T17:35:31.493Z,97964.41
2022-08-21T17:37:58.050Z,97961.81
2022-08-21T17:40:24.893Z,97956.63
2022-08-21T17:42:51.755Z,97959.34
2022-08-21T17:45:20.200Z,97962.47
2022-08-21T17:47:47.020Z,97960.69
2022-08-21T17:50:14.962Z,97961.91
2022-08-21T17:52:44.583Z,97963.16
2022-08-21T17:55:13.494Z,97970.44
2022-08-21T17:57:41.751Z,97971.97
2022-08-21T18:00:11.230Z,97966.72
2022-08-21T18:02:42.053Z,97972.47
2022-08-21T18:05:10.609Z,97969.50
2022-08-21T18:07:38.113Z,97964.59
2022-08-21T18:10:07.208Z,97968.06
2022-08-21T18:12:34.864Z,97970.78
2022-08-21T18:15:02.294Z,97977.25
2022-08-21T18:17:30.423Z,97976.13
2022-08-21T18:19:59.456Z,97979.56
2022-08-21T18:22:26.822Z,97984.16
2022-08-21T18:24:53.475Z,97988.00
2022-08-21T18:27:21.680Z,97988.75
2022-08-21T18:29:50.849Z,97995.59
2022-08-21T18:32:31.266Z,97994.84
2022-08-21T18:35:01.772Z,97997.13
2022-08-21T18:37:28.759Z,98007.78
2022-08-21T18:39:55.473Z,97998.31
2022-08-21T18:42:28.788Z,98005.53
2022-08-21T18:45:01.559Z,98008.19
2022-08-21T18:47:37.332Z,98009.31
2022-08-21T18:50:10.881Z,98001.34
2022-08-21T18:52:38.390Z,98004.78
2022-08-21T18:55:13.469Z,98013.50
2022-08-21T18:57:41.843Z,98015.78
2022-08-21T19:00:21.034Z,98019.97
2022-08-21T19:02:47.886Z,98026.75
2022-08-21T19:05:17.523Z,98035.47
2022-08-21T19:07:44.655Z,98030.88
2022-08-21T19:10:27.951Z,98031.63
2022-08-21T19:12:57.965Z,98027.88
2022-08-21T19:15:25.198Z,98032.38
2022-08-21T19:17:53.494Z,98033.50
2022-08-21T19:20:31.314Z,98031.59
2022-08-21T19:22:58.317Z,98040.66
2022-08-21T19:25:33.580Z,98039.88
2022-08-21T19:28:21.123Z,98044.38
2022-08-21T19:30:58.846Z,98040.94
2022-08-21T19:33:34.542Z,98048.13
2022-08-21T19:36:02.278Z,98040.94
2022-08-21T19:38:29.175Z,98047.72
2022-08-21T19:40:56.477Z,98040.56
2022-08-21T19:43:24.056Z,98043.91
2022-08-21T19:45:56.713Z,98045.06
2022-08-21T19:48:25.558Z,98048.78
2022-08-21T19:50:52.985Z,98043.91
2022-08-21T19:53:20.157Z,98044.22
2022-08-21T19:55:48.252Z,98044.22
2022-08-21T19:58:25.459Z,98044.50
2022-08-21T20:00:52.125Z,98042.97
2022-08-21T20:03:21.225Z,98046.72
2022-08-21T20:05:48.056Z,98048.28
2022-08-21T20:08:20.290Z,98042.13
2022-08-21T20:10:49.951Z,98047.09
2022-08-21T20:13:18.794Z,98040.22
2022-08-21T20:15:45.636Z,98043.28
2022-08-21T20:18:13.358Z,98045.09
2022-08-21T20:20:40.496Z,98049.59
2022-08-21T20:23:10.831Z,98042.38
2022-08-21T20:25:38.810Z,98052.59
2022-08-21T20:28:06.568Z,98049.47
2022-08-21T20:30:35.298Z,98056.59
2022-08-21T20:33:02.660Z,98057.38
2022-08-21T20:35:29.419Z,98052.47
2022-08-21T20:37:58.981Z,98058.50
2022-08-21T20:40:32.410Z,98054.22
2022-08-21T20:43:00.829Z,98060.53
2022-08-21T20:45:32.207Z,98057.13
2022-08-21T20:48:05.578Z,98049.56
2022-08-21T20:50:37.091Z,98049.84
2022-08-21T20:53:11.298Z,98054.31
2022-08-21T20:55:44.049Z,98057.81
2022-08-21T20:58:20.731Z,98056.69
2022-08-21T21:00:49.662Z,98058.16
2022-08-21T21:03:32.117Z,98063.06
2022-08-21T21:06:06.679Z,98067.59
2022-08-21T21:09:14.775Z,98066.38
2022-08-21T21:11:49.963Z,98068.94
2022-08-21T21:14:23.338Z,98075.31
2022-08-21T21:16:53.481Z,98074.22
2022-08-21T21:19:58.269Z,98079.44
2022-08-21T21:22:48.106Z,98080.06
2022-08-21T21:25:40.646Z,98079.38
2022-08-21T21:28:14.532Z,98074.06
2022-08-21T21:30:46.732Z,98073.44
2022-08-21T21:33:16.765Z,98075.31
2022-08-21T21:35:49.236Z,98074.22
2022-08-21T21:38:37.710Z,98082.44
2022-08-21T21:41:25.046Z,98078.88
2022-08-21T21:44:25.985Z,98083.00
2022-08-21T21:47:00.210Z,98087.19
2022-08-21T21:49:58.209Z,98095.84
2022-08-21T21:52:45.437Z,98093.66
2022-08-21T21:55:23.936Z,98099.63
2022-08-21T21:58:26.484Z,98093.13
2022-08-21T22:01:32.078Z,98100.63
2022-08-21T22:04:17.029Z,98094.88
2022-08-21T22:07:17.624Z,98107.97
2022-08-21T22:09:48.894Z,98104.44
2022-08-21T22:12:30.859Z,98096.41
2022-08-21T22:14:57.530Z,98092.97
2022-08-21T22:17:42.279Z,98092.28
2022-08-21T22:20:22.892Z,98091.84
2022-08-21T22:22:53.023Z,98089.56
2022-08-21T22:25:27.095Z,98090.41
2022-08-21T22:28:03.025Z,98095.13
2022-08-21T22:30:46.768Z,98093.94
2022-08-21T22:33:22.994Z,98085.56
2022-08-21T22:35:52.964Z,98086.59
2022-08-21T22:38:29.881Z,98095.34
2022-08-21T22:41:19.216Z,98087.19
2022-08-21T22:43:52.930Z,98086.06
2022-08-21T22:46:26.826Z,98095.47
2022-08-21T22:48:58.038Z,98087.78
2022-08-21T22:51:41.936Z,98088.97
2022-08-21T22:54:16.790Z,98088.91
2022-08-21T22:56:58.481Z,98087.88
2022-08-21T22:59:29.337Z,98083.94
2022-08-21T23:02:03.792Z,98091.53
2022-08-21T23:04:31.810Z,98080.09
2022-08-21T23:07:03.141Z,98090.28
2022-08-21T23:09:48.232Z,98081.63
2022-08-21T23:12:33.907Z,98084.09
2022-08-21T23:15:07.699Z,98093.50
2022-08-21T23:18:03.129Z,98093.16
2022-08-21T23:20:42.656Z,98094.97
2022-08-21T23:23:14.859Z,98080.38
2022-08-21T23:26:12.288Z,98082.59
2022-08-21T23:29:08.795Z,98083.16
2022-08-21T23:31:56.986Z,98091.91
2022-08-21T23:34:51.214Z,98088.06
2022-08-21T23:37:51.624Z,98088.13
2022-08-21T23:40:49.492Z,98090.22
2022-08-21T23:43:41.288Z,98090.97
2022-08-21T23:46:34.229Z,98091.03
2022-08-21T23:49:26.938Z,98084.06
2022-08-21T23:52:12.282Z,98082.44
2022-08-21T23:54:42.325Z,98077.19
2022-08-21T23:57:31.825Z,98089.16
